sensor_id;sensor_type;location;lat;lon;timestamp;P1;durP1;ratioP1;P2;durP2;ratioP2
24030;SDS011;12240;51.142;22.486;2023-12-20T00:02:40;30.70;;;11.50;;
24030;SDS011;12240;51.142;22.486;2023-12-20T00:05:07;28.30;;;12.20;;
24030;SDS011;12240;51.142;22.486;2023-12-20T00:07:34;28.10;;;11.30;;
24030;SDS011;12240;51.142;22.486;2023-12-20T00:10:00;27.50;;;11.80;;
24030;SDS011;12240;51.142;22.486;2023-12-20T00:12:27;28.30;;;11.60;;
24030;SDS011;12240;51.142;22.486;2023-12-20T00:14:54;30.30;;;13.40;;
24030;SDS011;12240;51.142;22.486;2023-12-20T00:17:20;26.90;;;11.50;;
24030;SDS011;12240;51.142;22.486;2023-12-20T00:19:47;27.90;;;11.80;;
24030;SDS011;12240;51.142;22.486;2023-12-20T00:22:14;29.60;;;11.10;;
24030;SDS011;12240;51.142;22.486;2023-12-20T00:24:41;32.60;;;12.30;;
24030;SDS011;12240;51.142;22.486;2023-12-20T00:27:07;26.60;;;10.90;;
24030;SDS011;12240;51.142;22.486;2023-12-20T00:29:34;26.00;;;10.90;;
24030;SDS011;12240;51.142;22.486;2023-12-20T00:32:01;24.40;;;10.70;;
24030;SDS011;12240;51.142;22.486;2023-12-20T00:34:28;26.20;;;11.30;;
24030;SDS011;12240;51.142;22.486;2023-12-20T00:36:54;27.50;;;10.90;;
24030;SDS011;12240;51.142;22.486;2023-12-20T00:39:21;25.00;;;10.70;;
24030;SDS011;12240;51.142;22.486;2023-12-20T00:41:48;26.00;;;11.20;;
24030;SDS011;12240;51.142;22.486;2023-12-20T00:44:14;25.50;;;10.20;;
24030;SDS011;12240;51.142;22.486;2023-12-20T00:46:41;27.70;;;11.30;;
24030;SDS011;12240;51.142;22.486;2023-12-20T00:49:07;26.30;;;10.80;;
24030;SDS011;12240;51.142;22.486;2023-12-20T00:51:34;25.50;;;11.30;;
24030;SDS011;12240;51.142;22.486;2023-12-20T00:54:01;24.90;;;10.50;;
24030;SDS011;12240;51.142;22.486;2023-12-20T00:56:27;27.70;;;11.80;;
24030;SDS011;12240;51.142;22.486;2023-12-20T00:58:54;29.20;;;11.50;;
24030;SDS011;12240;51.142;22.486;2023-12-20T01:01:21;26.40;;;10.90;;
24030;SDS011;12240;51.142;22.486;2023-12-20T01:03:48;29.10;;;11.20;;
24030;SDS011;12240;51.142;22.486;2023-12-20T01:06:17;25.00;;;10.60;;
24030;SDS011;12240;51.142;22.486;2023-12-20T01:08:44;28.60;;;10.70;;
24030;SDS011;12240;51.142;22.486;2023-12-20T01:11:11;26.30;;;10.30;;
24030;SDS011;12240;51.142;22.486;2023-12-20T01:13:37;26.30;;;11.50;;
24030;SDS011;12240;51.142;22.486;2023-12-20T01:16:04;25.80;;;11.10;;
24030;SDS011;12240;51.142;22.486;2023-12-20T01:18:32;28.80;;;12.10;;
24030;SDS011;12240;51.142;22.486;2023-12-20T01:21:02;27.60;;;11.90;;
24030;SDS011;12240;51.142;22.486;2023-12-20T01:23:29;28.90;;;11.80;;
24030;SDS011;12240;51.142;22.486;2023-12-20T01:25:56;29.60;;;11.60;;
24030;SDS011;12240;51.142;22.486;2023-12-20T01:28:23;22.70;;;10.80;;
24030;SDS011;12240;51.142;22.486;2023-12-20T01:30:50;26.50;;;11.20;;
24030;SDS011;12240;51.142;22.486;2023-12-20T01:33:16;31.30;;;12.30;;
24030;SDS011;12240;51.142;22.486;2023-12-20T01:35:43;27.10;;;11.60;;
24030;SDS011;12240;51.142;22.486;2023-12-20T01:38:10;30.40;;;11.00;;
24030;SDS011;12240;51.142;22.486;2023-12-20T01:40:36;30.50;;;12.50;;
24030;SDS011;12240;51.142;22.486;2023-12-20T01:43:07;29.20;;;12.00;;
24030;SDS011;12240;51.142;22.486;2023-12-20T01:45:35;28.30;;;11.80;;
24030;SDS011;12240;51.142;22.486;2023-12-20T01:48:02;27.10;;;12.20;;
24030;SDS011;12240;51.142;22.486;2023-12-20T01:50:31;24.30;;;10.90;;
24030;SDS011;12240;51.142;22.486;2023-12-20T01:52:59;29.00;;;11.60;;
24030;SDS011;12240;51.142;22.486;2023-12-20T01:55:27;26.00;;;11.10;;
24030;SDS011;12240;51.142;22.486;2023-12-20T01:57:57;26.70;;;11.30;;
24030;SDS011;12240;51.142;22.486;2023-12-20T02:00:26;28.00;;;11.20;;
24030;SDS011;12240;51.142;22.486;2023-12-20T02:02:54;27.50;;;11.60;;
24030;SDS011;12240;51.142;22.486;2023-12-20T02:05:23;27.80;;;11.90;;
24030;SDS011;12240;51.142;22.486;2023-12-20T02:07:52;26.10;;;11.50;;
24030;SDS011;12240;51.142;22.486;2023-12-20T02:10:18;27.80;;;10.60;;
24030;SDS011;12240;51.142;22.486;2023-12-20T02:12:45;30.90;;;11.60;;
24030;SDS011;12240;51.142;22.486;2023-12-20T02:15:12;28.80;;;12.60;;
24030;SDS011;12240;51.142;22.486;2023-12-20T02:17:39;27.80;;;11.50;;
24030;SDS011;12240;51.142;22.486;2023-12-20T02:20:06;30.00;;;11.10;;
24030;SDS011;12240;51.142;22.486;2023-12-20T02:22:33;28.40;;;11.10;;
24030;SDS011;12240;51.142;22.486;2023-12-20T02:25:00;30.80;;;11.90;;
24030;SDS011;12240;51.142;22.486;2023-12-20T02:27:27;28.40;;;12.10;;
24030;SDS011;12240;51.142;22.486;2023-12-20T02:29:55;24.50;;;10.50;;
24030;SDS011;12240;51.142;22.486;2023-12-20T02:32:22;27.30;;;12.10;;
24030;SDS011;12240;51.142;22.486;2023-12-20T02:34:53;30.10;;;11.40;;
24030;SDS011;12240;51.142;22.486;2023-12-20T02:37:20;23.10;;;9.80;;
24030;SDS011;12240;51.142;22.486;2023-12-20T02:39:47;29.50;;;11.20;;
24030;SDS011;12240;51.142;22.486;2023-12-20T02:42:14;23.80;;;11.70;;
24030;SDS011;12240;51.142;22.486;2023-12-20T02:44:40;21.40;;;10.30;;
24030;SDS011;12240;51.142;22.486;2023-12-20T02:47:07;25.50;;;10.80;;
24030;SDS011;12240;51.142;22.486;2023-12-20T02:49:34;28.40;;;10.40;;
24030;SDS011;12240;51.142;22.486;2023-12-20T02:52:00;27.00;;;10.70;;
24030;SDS011;12240;51.142;22.486;2023-12-20T02:54:27;28.60;;;11.00;;
24030;SDS011;12240;51.142;22.486;2023-12-20T02:56:54;24.60;;;11.10;;
24030;SDS011;12240;51.142;22.486;2023-12-20T02:59:20;24.00;;;10.60;;
24030;SDS011;12240;51.142;22.486;2023-12-20T03:01:47;26.20;;;10.80;;
24030;SDS011;12240;51.142;22.486;2023-12-20T03:06:44;25.50;;;10.40;;
24030;SDS011;12240;51.142;22.486;2023-12-20T03:09:11;25.40;;;10.60;;
24030;SDS011;12240;51.142;22.486;2023-12-20T03:11:37;20.90;;;10.00;;
24030;SDS011;12240;51.142;22.486;2023-12-20T03:14:04;26.70;;;11.40;;
24030;SDS011;12240;51.142;22.486;2023-12-20T03:16:31;28.50;;;12.00;;
24030;SDS011;12240;51.142;22.486;2023-12-20T03:19:02;26.70;;;11.90;;
24030;SDS011;12240;51.142;22.486;2023-12-20T03:21:29;24.60;;;11.50;;
24030;SDS011;12240;51.142;22.486;2023-12-20T03:23:55;26.60;;;11.30;;
24030;SDS011;12240;51.142;22.486;2023-12-20T03:26:22;21.70;;;10.10;;
24030;SDS011;12240;51.142;22.486;2023-12-20T03:28:49;24.50;;;10.70;;
24030;SDS011;12240;51.142;22.486;2023-12-20T03:31:16;25.00;;;10.90;;
24030;SDS011;12240;51.142;22.486;2023-12-20T03:33:42;25.10;;;11.10;;
24030;SDS011;12240;51.142;22.486;2023-12-20T03:36:10;30.70;;;11.90;;
24030;SDS011;12240;51.142;22.486;2023-12-20T03:38:36;28.80;;;11.80;;
24030;SDS011;12240;51.142;22.486;2023-12-20T03:41:04;24.50;;;10.50;;
24030;SDS011;12240;51.142;22.486;2023-12-20T03:43:30;28.90;;;11.70;;
24030;SDS011;12240;51.142;22.486;2023-12-20T03:45:57;25.50;;;12.30;;
24030;SDS011;12240;51.142;22.486;2023-12-20T03:48:25;27.40;;;11.40;;
24030;SDS011;12240;51.142;22.486;2023-12-20T03:50:51;25.90;;;11.60;;
24030;SDS011;12240;51.142;22.486;2023-12-20T03:53:18;23.60;;;11.10;;
24030;SDS011;12240;51.142;22.486;2023-12-20T03:55:45;26.30;;;11.80;;
24030;SDS011;12240;51.142;22.486;2023-12-20T03:58:12;29.90;;;12.40;;
24030;SDS011;12240;51.142;22.486;2023-12-20T04:00:38;23.80;;;11.60;;
24030;SDS011;12240;51.142;22.486;2023-12-20T04:03:05;26.50;;;11.70;;
24030;SDS011;12240;51.142;22.486;2023-12-20T04:05:32;31.50;;;12.40;;
24030;SDS011;12240;51.142;22.486;2023-12-20T04:07:59;27.10;;;11.50;;
24030;SDS011;12240;51.142;22.486;2023-12-20T04:10:27;29.80;;;12.10;;
24030;SDS011;12240;51.142;22.486;2023-12-20T04:12:54;31.60;;;12.50;;
24030;SDS011;12240;51.142;22.486;2023-12-20T04:15:21;28.90;;;11.80;;
24030;SDS011;12240;51.142;22.486;2023-12-20T04:17:48;30.60;;;11.90;;
24030;SDS011;12240;51.142;22.486;2023-12-20T04:20:15;32.20;;;13.10;;
24030;SDS011;12240;51.142;22.486;2023-12-20T04:22:42;26.70;;;11.60;;
24030;SDS011;12240;51.142;22.486;2023-12-20T04:25:09;27.00;;;12.50;;
24030;SDS011;12240;51.142;22.486;2023-12-20T04:27:36;24.00;;;11.00;;
24030;SDS011;12240;51.142;22.486;2023-12-20T04:30:03;25.60;;;11.70;;
24030;SDS011;12240;51.142;22.486;2023-12-20T04:32:30;29.70;;;11.90;;
24030;SDS011;12240;51.142;22.486;2023-12-20T04:34:58;25.30;;;11.10;;
24030;SDS011;12240;51.142;22.486;2023-12-20T04:37:25;26.80;;;11.90;;
24030;SDS011;12240;51.142;22.486;2023-12-20T04:39:51;31.30;;;13.30;;
24030;SDS011;12240;51.142;22.486;2023-12-20T04:42:18;33.30;;;12.50;;
24030;SDS011;12240;51.142;22.486;2023-12-20T04:44:45;24.90;;;11.60;;
24030;SDS011;12240;51.142;22.486;2023-12-20T04:47:11;31.50;;;12.70;;
24030;SDS011;12240;51.142;22.486;2023-12-20T04:49:38;32.70;;;13.10;;
24030;SDS011;12240;51.142;22.486;2023-12-20T04:52:05;26.80;;;12.00;;
24030;SDS011;12240;51.142;22.486;2023-12-20T04:54:32;25.10;;;11.70;;
24030;SDS011;12240;51.142;22.486;2023-12-20T04:56:59;25.70;;;11.60;;
24030;SDS011;12240;51.142;22.486;2023-12-20T04:59:25;29.10;;;13.00;;
24030;SDS011;12240;51.142;22.486;2023-12-20T05:01:53;31.20;;;12.70;;
24030;SDS011;12240;51.142;22.486;2023-12-20T05:04:20;30.10;;;12.10;;
24030;SDS011;12240;51.142;22.486;2023-12-20T05:06:47;29.20;;;12.90;;
24030;SDS011;12240;51.142;22.486;2023-12-20T05:09:13;29.70;;;12.80;;
24030;SDS011;12240;51.142;22.486;2023-12-20T05:11:40;29.30;;;12.20;;
24030;SDS011;12240;51.142;22.486;2023-12-20T05:14:07;24.70;;;10.70;;
24030;SDS011;12240;51.142;22.486;2023-12-20T05:16:33;27.20;;;11.60;;
24030;SDS011;12240;51.142;22.486;2023-12-20T05:19:00;26.80;;;12.80;;
24030;SDS011;12240;51.142;22.486;2023-12-20T05:21:28;26.90;;;12.10;;
24030;SDS011;12240;51.142;22.486;2023-12-20T05:23:55;33.70;;;13.70;;
24030;SDS011;12240;51.142;22.486;2023-12-20T05:26:22;25.60;;;11.50;;
24030;SDS011;12240;51.142;22.486;2023-12-20T05:28:48;25.40;;;11.80;;
24030;SDS011;12240;51.142;22.486;2023-12-20T05:31:15;26.00;;;11.90;;
24030;SDS011;12240;51.142;22.486;2023-12-20T05:33:42;24.90;;;11.00;;
24030;SDS011;12240;51.142;22.486;2023-12-20T05:36:09;34.80;;;13.50;;
24030;SDS011;12240;51.142;22.486;2023-12-20T05:38:37;26.40;;;11.60;;
24030;SDS011;12240;51.142;22.486;2023-12-20T05:41:04;27.60;;;11.90;;
24030;SDS011;12240;51.142;22.486;2023-12-20T05:43:31;26.00;;;11.90;;
24030;SDS011;12240;51.142;22.486;2023-12-20T05:45:58;29.60;;;12.80;;
24030;SDS011;12240;51.142;22.486;2023-12-20T05:48:25;27.90;;;13.30;;
24030;SDS011;12240;51.142;22.486;2023-12-20T05:50:51;29.00;;;12.60;;
24030;SDS011;12240;51.142;22.486;2023-12-20T05:53:18;29.00;;;11.60;;
24030;SDS011;12240;51.142;22.486;2023-12-20T05:55:45;23.90;;;10.90;;
24030;SDS011;12240;51.142;22.486;2023-12-20T06:01:10;25.70;;;11.40;;
24030;SDS011;12240;51.142;22.486;2023-12-20T06:03:37;28.10;;;13.20;;
24030;SDS011;12240;51.142;22.486;2023-12-20T06:06:08;25.30;;;11.60;;
24030;SDS011;12240;51.142;22.486;2023-12-20T06:08:42;28.30;;;12.40;;
24030;SDS011;12240;51.142;22.486;2023-12-20T06:11:10;30.00;;;13.10;;
24030;SDS011;12240;51.142;22.486;2023-12-20T06:13:37;27.90;;;12.40;;
24030;SDS011;12240;51.142;22.486;2023-12-20T06:16:05;30.30;;;12.60;;
24030;SDS011;12240;51.142;22.486;2023-12-20T06:18:34;31.00;;;13.50;;
24030;SDS011;12240;51.142;22.486;2023-12-20T06:21:01;24.70;;;12.00;;
24030;SDS011;12240;51.142;22.486;2023-12-20T06:23:28;28.20;;;12.10;;
24030;SDS011;12240;51.142;22.486;2023-12-20T06:25:55;25.80;;;11.80;;
24030;SDS011;12240;51.142;22.486;2023-12-20T06:28:22;30.50;;;13.30;;
24030;SDS011;12240;51.142;22.486;2023-12-20T06:30:49;28.50;;;13.10;;
24030;SDS011;12240;51.142;22.486;2023-12-20T06:33:18;26.80;;;12.50;;
24030;SDS011;12240;51.142;22.486;2023-12-20T06:35:45;29.60;;;12.80;;
24030;SDS011;12240;51.142;22.486;2023-12-20T06:38:11;32.20;;;12.40;;
24030;SDS011;12240;51.142;22.486;2023-12-20T06:40:38;27.70;;;12.00;;
24030;SDS011;12240;51.142;22.486;2023-12-20T06:43:05;28.80;;;13.30;;
24030;SDS011;12240;51.142;22.486;2023-12-20T06:45:46;29.00;;;12.20;;
24030;SDS011;12240;51.142;22.486;2023-12-20T06:48:12;32.90;;;12.80;;
24030;SDS011;12240;51.142;22.486;2023-12-20T06:50:40;26.50;;;13.50;;
24030;SDS011;12240;51.142;22.486;2023-12-20T06:53:06;30.50;;;14.00;;
24030;SDS011;12240;51.142;22.486;2023-12-20T06:55:34;29.00;;;13.00;;
24030;SDS011;12240;51.142;22.486;2023-12-20T06:58:02;28.30;;;13.30;;
24030;SDS011;12240;51.142;22.486;2023-12-20T07:00:29;32.80;;;14.00;;
24030;SDS011;12240;51.142;22.486;2023-12-20T07:02:56;26.70;;;11.80;;
24030;SDS011;12240;51.142;22.486;2023-12-20T07:05:23;28.40;;;12.20;;
24030;SDS011;12240;51.142;22.486;2023-12-20T07:07:50;32.80;;;12.30;;
24030;SDS011;12240;51.142;22.486;2023-12-20T07:10:17;28.30;;;12.70;;
24030;SDS011;12240;51.142;22.486;2023-12-20T07:12:44;26.80;;;12.20;;
24030;SDS011;12240;51.142;22.486;2023-12-20T07:15:11;31.00;;;12.30;;
24030;SDS011;12240;51.142;22.486;2023-12-20T07:17:37;31.50;;;13.80;;
24030;SDS011;12240;51.142;22.486;2023-12-20T07:20:04;26.20;;;12.10;;
24030;SDS011;12240;51.142;22.486;2023-12-20T07:22:33;27.30;;;12.80;;
24030;SDS011;12240;51.142;22.486;2023-12-20T07:25:00;30.60;;;13.30;;
24030;SDS011;12240;51.142;22.486;2023-12-20T07:27:27;33.20;;;14.00;;
24030;SDS011;12240;51.142;22.486;2023-12-20T07:29:54;30.30;;;13.80;;
24030;SDS011;12240;51.142;22.486;2023-12-20T07:32:20;31.90;;;12.90;;
24030;SDS011;12240;51.142;22.486;2023-12-20T07:34:47;28.70;;;12.70;;
24030;SDS011;12240;51.142;22.486;2023-12-20T07:37:14;28.90;;;13.10;;
24030;SDS011;12240;51.142;22.486;2023-12-20T07:39:41;30.10;;;12.40;;
24030;SDS011;12240;51.142;22.486;2023-12-20T07:42:08;29.90;;;12.20;;
24030;SDS011;12240;51.142;22.486;2023-12-20T07:44:35;26.60;;;12.10;;
24030;SDS011;12240;51.142;22.486;2023-12-20T07:47:05;26.10;;;12.40;;
24030;SDS011;12240;51.142;22.486;2023-12-20T07:49:32;32.00;;;12.80;;
24030;SDS011;12240;51.142;22.486;2023-12-20T07:51:59;29.30;;;12.80;;
24030;SDS011;12240;51.142;22.486;2023-12-20T07:54:25;31.80;;;12.30;;
24030;SDS011;12240;51.142;22.486;2023-12-20T07:56:52;28.60;;;13.10;;
24030;SDS011;12240;51.142;22.486;2023-12-20T07:59:18;23.70;;;10.60;;
24030;SDS011;12240;51.142;22.486;2023-12-20T08:01:57;28.80;;;11.90;;
24030;SDS011;12240;51.142;22.486;2023-12-20T08:04:25;26.90;;;10.90;;
24030;SDS011;12240;51.142;22.486;2023-12-20T08:06:51;26.90;;;11.50;;
24030;SDS011;12240;51.142;22.486;2023-12-20T08:09:18;24.70;;;10.70;;
24030;SDS011;12240;51.142;22.486;2023-12-20T08:11:49;28.40;;;12.00;;
24030;SDS011;12240;51.142;22.486;2023-12-20T08:14:16;28.60;;;12.30;;
24030;SDS011;12240;51.142;22.486;2023-12-20T08:16:42;26.40;;;12.10;;
24030;SDS011;12240;51.142;22.486;2023-12-20T08:19:09;28.00;;;12.50;;
24030;SDS011;12240;51.142;22.486;2023-12-20T08:21:36;29.00;;;12.50;;
24030;SDS011;12240;51.142;22.486;2023-12-20T08:24:04;23.60;;;10.50;;
24030;SDS011;12240;51.142;22.486;2023-12-20T08:26:32;28.40;;;12.10;;
24030;SDS011;12240;51.142;22.486;2023-12-20T08:28:59;28.10;;;11.00;;
24030;SDS011;12240;51.142;22.486;2023-12-20T08:31:28;27.50;;;11.60;;
24030;SDS011;12240;51.142;22.486;2023-12-20T08:33:55;27.30;;;11.30;;
24030;SDS011;12240;51.142;22.486;2023-12-20T08:36:23;28.40;;;11.30;;
24030;SDS011;12240;51.142;22.486;2023-12-20T08:38:50;27.20;;;12.00;;
24030;SDS011;12240;51.142;22.486;2023-12-20T08:41:17;28.90;;;12.20;;
24030;SDS011;12240;51.142;22.486;2023-12-20T08:43:44;31.40;;;12.80;;
24030;SDS011;12240;51.142;22.486;2023-12-20T08:46:11;27.80;;;12.20;;
24030;SDS011;12240;51.142;22.486;2023-12-20T08:48:38;30.80;;;13.00;;
24030;SDS011;12240;51.142;22.486;2023-12-20T08:51:05;28.10;;;12.20;;
24030;SDS011;12240;51.142;22.486;2023-12-20T08:53:36;34.70;;;14.40;;
24030;SDS011;12240;51.142;22.486;2023-12-20T08:56:02;34.30;;;13.60;;
24030;SDS011;12240;51.142;22.486;2023-12-20T08:58:29;27.00;;;12.50;;
24030;SDS011;12240;51.142;22.486;2023-12-20T09:00:56;34.80;;;14.50;;
24030;SDS011;12240;51.142;22.486;2023-12-20T09:03:24;31.00;;;13.40;;
24030;SDS011;12240;51.142;22.486;2023-12-20T09:05:51;30.20;;;12.50;;
24030;SDS011;12240;51.142;22.486;2023-12-20T09:08:17;30.00;;;13.30;;
24030;SDS011;12240;51.142;22.486;2023-12-20T09:10:44;26.80;;;11.70;;
24030;SDS011;12240;51.142;22.486;2023-12-20T09:13:11;28.60;;;12.40;;
24030;SDS011;12240;51.142;22.486;2023-12-20T09:15:38;26.70;;;12.10;;
24030;SDS011;12240;51.142;22.486;2023-12-20T09:18:05;28.30;;;11.90;;
24030;SDS011;12240;51.142;22.486;2023-12-20T09:20:33;28.10;;;12.50;;
24030;SDS011;12240;51.142;22.486;2023-12-20T09:23:00;27.50;;;13.10;;
24030;SDS011;12240;51.142;22.486;2023-12-20T09:25:27;24.90;;;11.40;;
24030;SDS011;12240;51.142;22.486;2023-12-20T09:27:54;26.20;;;11.20;;
24030;SDS011;12240;51.142;22.486;2023-12-20T09:30:21;26.00;;;11.50;;
24030;SDS011;12240;51.142;22.486;2023-12-20T09:32:53;26.40;;;11.60;;
24030;SDS011;12240;51.142;22.486;2023-12-20T09:35:21;26.70;;;11.30;;
24030;SDS011;12240;51.142;22.486;2023-12-20T09:37:48;23.60;;;11.40;;
24030;SDS011;12240;51.142;22.486;2023-12-20T09:40:17;25.50;;;10.90;;
24030;SDS011;12240;51.142;22.486;2023-12-20T09:45:16;23.70;;;11.10;;
24030;SDS011;12240;51.142;22.486;2023-12-20T09:47:46;29.60;;;12.20;;
24030;SDS011;12240;51.142;22.486;2023-12-20T09:50:13;25.30;;;12.30;;
24030;SDS011;12240;51.142;22.486;2023-12-20T09:52:40;24.30;;;11.00;;
24030;SDS011;12240;51.142;22.486;2023-12-20T09:55:09;27.20;;;11.50;;
24030;SDS011;12240;51.142;22.486;2023-12-20T09:57:36;26.50;;;11.80;;
24030;SDS011;12240;51.142;22.486;2023-12-20T10:00:03;27.50;;;11.60;;
24030;SDS011;12240;51.142;22.486;2023-12-20T10:02:30;24.80;;;11.20;;
24030;SDS011;12240;51.142;22.486;2023-12-20T10:04:58;25.70;;;11.20;;
24030;SDS011;12240;51.142;22.486;2023-12-20T10:07:26;23.50;;;11.10;;
24030;SDS011;12240;51.142;22.486;2023-12-20T10:09:54;27.40;;;11.00;;
24030;SDS011;12240;51.142;22.486;2023-12-20T10:12:22;22.50;;;10.60;;
24030;SDS011;12240;51.142;22.486;2023-12-20T10:14:48;21.40;;;10.20;;
24030;SDS011;12240;51.142;22.486;2023-12-20T10:17:15;21.40;;;10.30;;
24030;SDS011;12240;51.142;22.486;2023-12-20T10:19:42;20.40;;;9.50;;
24030;SDS011;12240;51.142;22.486;2023-12-20T10:22:09;23.80;;;11.10;;
24030;SDS011;12240;51.142;22.486;2023-12-20T10:24:36;22.30;;;10.30;;
24030;SDS011;12240;51.142;22.486;2023-12-20T10:27:03;24.20;;;10.00;;
24030;SDS011;12240;51.142;22.486;2023-12-20T10:29:35;22.30;;;10.10;;
24030;SDS011;12240;51.142;22.486;2023-12-20T10:32:23;22.50;;;10.10;;
24030;SDS011;12240;51.142;22.486;2023-12-20T10:34:52;21.00;;;9.70;;
24030;SDS011;12240;51.142;22.486;2023-12-20T10:37:20;24.60;;;10.30;;
24030;SDS011;12240;51.142;22.486;2023-12-20T10:39:49;21.40;;;9.90;;
24030;SDS011;12240;51.142;22.486;2023-12-20T10:42:19;18.70;;;8.80;;
24030;SDS011;12240;51.142;22.486;2023-12-20T10:44:51;18.50;;;8.60;;
24030;SDS011;12240;51.142;22.486;2023-12-20T10:47:20;18.80;;;8.10;;
24030;SDS011;12240;51.142;22.486;2023-12-20T10:49:47;18.90;;;8.20;;
24030;SDS011;12240;51.142;22.486;2023-12-20T10:52:14;17.40;;;8.40;;
24030;SDS011;12240;51.142;22.486;2023-12-20T10:54:43;20.90;;;9.80;;
24030;SDS011;12240;51.142;22.486;2023-12-20T10:57:11;19.10;;;8.90;;
24030;SDS011;12240;51.142;22.486;2023-12-20T10:59:38;22.70;;;10.10;;
24030;SDS011;12240;51.142;22.486;2023-12-20T11:02:06;19.80;;;9.70;;
24030;SDS011;12240;51.142;22.486;2023-12-20T11:04:37;21.10;;;9.10;;
24030;SDS011;12240;51.142;22.486;2023-12-20T11:07:17;17.90;;;8.40;;
24030;SDS011;12240;51.142;22.486;2023-12-20T11:09:58;19.50;;;9.40;;
24030;SDS011;12240;51.142;22.486;2023-12-20T11:12:35;18.90;;;9.20;;
24030;SDS011;12240;51.142;22.486;2023-12-20T11:15:07;15.70;;;8.00;;
24030;SDS011;12240;51.142;22.486;2023-12-20T11:17:34;24.20;;;10.20;;
24030;SDS011;12240;51.142;22.486;2023-12-20T11:22:30;17.30;;;8.40;;
24030;SDS011;12240;51.142;22.486;2023-12-20T11:25:03;17.40;;;8.80;;
24030;SDS011;12240;51.142;22.486;2023-12-20T11:27:41;20.60;;;9.20;;
24030;SDS011;12240;51.142;22.486;2023-12-20T11:30:14;20.10;;;9.20;;
24030;SDS011;12240;51.142;22.486;2023-12-20T11:32:41;17.60;;;9.20;;
24030;SDS011;12240;51.142;22.486;2023-12-20T11:37:37;21.40;;;10.50;;
24030;SDS011;12240;51.142;22.486;2023-12-20T11:40:14;21.80;;;9.90;;
24030;SDS011;12240;51.142;22.486;2023-12-20T11:42:43;20.80;;;9.90;;
24030;SDS011;12240;51.142;22.486;2023-12-20T11:45:17;18.20;;;10.00;;
24030;SDS011;12240;51.142;22.486;2023-12-20T11:47:46;18.80;;;9.60;;
24030;SDS011;12240;51.142;22.486;2023-12-20T11:50:17;24.40;;;11.50;;
24030;SDS011;12240;51.142;22.486;2023-12-20T11:52:45;18.60;;;9.60;;
24030;SDS011;12240;51.142;22.486;2023-12-20T11:55:12;19.20;;;9.10;;
24030;SDS011;12240;51.142;22.486;2023-12-20T11:57:39;20.30;;;9.90;;
24030;SDS011;12240;51.142;22.486;2023-12-20T12:02:55;20.10;;;9.40;;
24030;SDS011;12240;51.142;22.486;2023-12-20T12:07:49;19.40;;;8.80;;
24030;SDS011;12240;51.142;22.486;2023-12-20T12:10:19;20.10;;;9.00;;
24030;SDS011;12240;51.142;22.486;2023-12-20T12:12:46;19.70;;;8.90;;
24030;SDS011;12240;51.142;22.486;2023-12-20T12:15:14;18.50;;;8.50;;
24030;SDS011;12240;51.142;22.486;2023-12-20T12:17:40;18.00;;;8.80;;
24030;SDS011;12240;51.142;22.486;2023-12-20T12:20:07;17.40;;;8.80;;
24030;SDS011;12240;51.142;22.486;2023-12-20T12:22:36;17.80;;;8.90;;
24030;SDS011;12240;51.142;22.486;2023-12-20T12:25:09;15.70;;;8.60;;
24030;SDS011;12240;51.142;22.486;2023-12-20T12:27:41;19.00;;;8.50;;
24030;SDS011;12240;51.142;22.486;2023-12-20T12:30:08;16.50;;;8.30;;
24030;SDS011;12240;51.142;22.486;2023-12-20T12:32:36;16.50;;;7.20;;
24030;SDS011;12240;51.142;22.486;2023-12-20T12:35:03;16.20;;;6.90;;
24030;SDS011;12240;51.142;22.486;2023-12-20T12:37:37;15.60;;;6.50;;
24030;SDS011;12240;51.142;22.486;2023-12-20T12:40:06;12.60;;;6.30;;
24030;SDS011;12240;51.142;22.486;2023-12-20T12:42:36;8.30;;;4.20;;
24030;SDS011;12240;51.142;22.486;2023-12-20T12:45:04;9.90;;;3.70;;
24030;SDS011;12240;51.142;22.486;2023-12-20T12:47:31;8.50;;;2.80;;
24030;SDS011;12240;51.142;22.486;2023-12-20T12:49:58;6.50;;;2.90;;
24030;SDS011;12240;51.142;22.486;2023-12-20T12:52:25;3.70;;;2.00;;
24030;SDS011;12240;51.142;22.486;2023-12-20T12:54:53;4.40;;;1.60;;
24030;SDS011;12240;51.142;22.486;2023-12-20T12:57:20;2.30;;;1.10;;
24030;SDS011;12240;51.142;22.486;2023-12-20T12:59:47;1.20;;;0.90;;
24030;SDS011;12240;51.142;22.486;2023-12-20T13:02:14;2.50;;;1.00;;
24030;SDS011;12240;51.142;22.486;2023-12-20T13:04:41;1.40;;;0.80;;
24030;SDS011;12240;51.142;22.486;2023-12-20T13:07:09;2.80;;;1.10;;
24030;SDS011;12240;51.142;22.486;2023-12-20T13:09:39;2.40;;;0.90;;
24030;SDS011;12240;51.142;22.486;2023-12-20T13:12:06;3.10;;;1.20;;
24030;SDS011;12240;51.142;22.486;2023-12-20T13:14:34;4.10;;;1.60;;
24030;SDS011;12240;51.142;22.486;2023-12-20T13:17:01;2.90;;;1.10;;
24030;SDS011;12240;51.142;22.486;2023-12-20T13:19:30;2.60;;;1.10;;
24030;SDS011;12240;51.142;22.486;2023-12-20T13:21:57;4.40;;;1.40;;
24030;SDS011;12240;51.142;22.486;2023-12-20T13:24:24;2.70;;;1.20;;
24030;SDS011;12240;51.142;22.486;2023-12-20T13:26:51;2.50;;;1.20;;
24030;SDS011;12240;51.142;22.486;2023-12-20T13:29:18;4.60;;;1.10;;
24030;SDS011;12240;51.142;22.486;2023-12-20T13:31:44;4.00;;;1.00;;
24030;SDS011;12240;51.142;22.486;2023-12-20T13:34:11;3.70;;;1.40;;
24030;SDS011;12240;51.142;22.486;2023-12-20T13:36:39;7.10;;;2.10;;
24030;SDS011;12240;51.142;22.486;2023-12-20T13:39:05;4.40;;;1.50;;
24030;SDS011;12240;51.142;22.486;2023-12-20T13:41:33;4.80;;;2.00;;
24030;SDS011;12240;51.142;22.486;2023-12-20T13:44:00;5.00;;;2.00;;
24030;SDS011;12240;51.142;22.486;2023-12-20T13:46:29;7.70;;;2.30;;
24030;SDS011;12240;51.142;22.486;2023-12-20T13:48:56;8.20;;;2.60;;
24030;SDS011;12240;51.142;22.486;2023-12-20T13:51:23;6.90;;;2.50;;
24030;SDS011;12240;51.142;22.486;2023-12-20T13:53:50;5.20;;;2.00;;
24030;SDS011;12240;51.142;22.486;2023-12-20T13:56:17;5.80;;;2.10;;
24030;SDS011;12240;51.142;22.486;2023-12-20T13:58:44;4.80;;;2.00;;
24030;SDS011;12240;51.142;22.486;2023-12-20T14:01:13;3.90;;;1.60;;
24030;SDS011;12240;51.142;22.486;2023-12-20T14:03:39;2.90;;;1.40;;
24030;SDS011;12240;51.142;22.486;2023-12-20T14:06:07;4.00;;;1.50;;
24030;SDS011;12240;51.142;22.486;2023-12-20T14:08:34;4.00;;;1.60;;
24030;SDS011;12240;51.142;22.486;2023-12-20T14:11:02;2.80;;;1.30;;
24030;SDS011;12240;51.142;22.486;2023-12-20T14:13:29;4.90;;;1.50;;
24030;SDS011;12240;51.142;22.486;2023-12-20T14:15:56;6.60;;;1.50;;
24030;SDS011;12240;51.142;22.486;2023-12-20T14:18:23;3.40;;;1.40;;
24030;SDS011;12240;51.142;22.486;2023-12-20T14:20:49;4.60;;;1.50;;
24030;SDS011;12240;51.142;22.486;2023-12-20T14:23:17;4.40;;;1.50;;
24030;SDS011;12240;51.142;22.486;2023-12-20T14:25:43;3.20;;;1.10;;
24030;SDS011;12240;51.142;22.486;2023-12-20T14:28:17;4.40;;;1.60;;
24030;SDS011;12240;51.142;22.486;2023-12-20T14:30:44;3.80;;;1.30;;
24030;SDS011;12240;51.142;22.486;2023-12-20T14:33:11;1.60;;;1.00;;
24030;SDS011;12240;51.142;22.486;2023-12-20T14:35:38;6.00;;;1.40;;